Hillsboro, New Mexico
Current Conditions -  °F | °C
As of 6:53 PM on Friday 19 Dec 2014 (Local Time) from KTCS Reporting Station
Clear Clear  
Wind Chill: 41°   Ceiling: Unl
Heat Index: 41°   Visibility: 10mi
Dew Point: 26°   Wind: 3mph
Humidity: 55%   Direction: 130°SE
Pressure: 30.16"   Gusts: NA
Location:  32.92°N, 107.57°W
Report Text: KTCS 200153Z AUTO 13003KT 10SM CLR 05/M03 A3016 RMK AO2 SLP204 T00501033 TSNO
Loading
Personal Weather Stations






























Interactive Weather Map New forecast layout! Learn more

10-Day Weather Forecast

Advertisements
Track Severe Weather on mobile